sensor_id;sensor_type;location;lat;lon;timestamp;temperature;humidity
947;DHT22;460;48.734;9.152;2022-11-15T00:02:12;8.50;99.90
947;DHT22;460;48.734;9.152;2022-11-15T00:04:40;8.50;99.90
947;DHT22;460;48.734;9.152;2022-11-15T00:07:07;8.40;99.90
947;DHT22;460;48.734;9.152;2022-11-15T00:09:34;8.40;99.90
947;DHT22;460;48.734;9.152;2022-11-15T00:12:01;8.40;99.90
947;DHT22;460;48.734;9.152;2022-11-15T00:14:27;8.40;99.90
947;DHT22;460;48.734;9.152;2022-11-15T00:16:54;8.40;99.90
947;DHT22;460;48.734;9.152;2022-11-15T00:19:21;8.40;99.90
947;DHT22;460;48.734;9.152;2022-11-15T00:21:49;8.20;99.90
947;DHT22;460;48.734;9.152;2022-11-15T00:24:16;8.30;99.90
947;DHT22;460;48.734;9.152;2022-11-15T00:26:43;8.30;99.90
947;DHT22;460;48.734;9.152;2022-11-15T00:29:10;8.30;99.90
947;DHT22;460;48.734;9.152;2022-11-15T00:31:36;8.30;99.90
947;DHT22;460;48.734;9.152;2022-11-15T00:34:03;8.20;99.90
947;DHT22;460;48.734;9.152;2022-11-15T00:36:33;8.30;99.90
947;DHT22;460;48.734;9.152;2022-11-15T00:39:03;8.20;99.90
947;DHT22;460;48.734;9.152;2022-11-15T00:41:30;8.20;99.90
947;DHT22;460;48.734;9.152;2022-11-15T00:43:57;8.20;99.90
947;DHT22;460;48.734;9.152;2022-11-15T00:46:23;8.20;99.90
947;DHT22;460;48.734;9.152;2022-11-15T00:48:50;8.20;99.90
947;DHT22;460;48.734;9.152;2022-11-15T00:51:17;8.10;99.90
947;DHT22;460;48.734;9.152;2022-11-15T00:53:44;8.10;99.90
947;DHT22;460;48.734;9.152;2022-11-15T00:56:12;8.10;99.90
947;DHT22;460;48.734;9.152;2022-11-15T00:58:39;8.20;99.90
947;DHT22;460;48.734;9.152;2022-11-15T01:01:07;8.20;99.90
947;DHT22;460;48.734;9.152;2022-11-15T01:03:34;8.20;99.90
947;DHT22;460;48.734;9.152;2022-11-15T01:06:02;8.20;99.90
947;DHT22;460;48.734;9.152;2022-11-15T01:08:29;8.10;99.90
947;DHT22;460;48.734;9.152;2022-11-15T01:11:00;8.10;99.90
947;DHT22;460;48.734;9.152;2022-11-15T01:13:31;8.10;99.90
947;DHT22;460;48.734;9.152;2022-11-15T01:15:58;8.10;99.90
947;DHT22;460;48.734;9.152;2022-11-15T01:18:25;8.10;99.90
947;DHT22;460;48.734;9.152;2022-11-15T01:20:52;8.00;99.90
947;DHT22;460;48.734;9.152;2022-11-15T01:23:18;8.10;99.90
947;DHT22;460;48.734;9.152;2022-11-15T01:25:45;8.00;99.90
947;DHT22;460;48.734;9.152;2022-11-15T01:28:12;8.00;99.90
947;DHT22;460;48.734;9.152;2022-11-15T01:30:40;8.00;99.90
947;DHT22;460;48.734;9.152;2022-11-15T01:33:07;7.90;99.90
947;DHT22;460;48.734;9.152;2022-11-15T01:35:38;7.90;99.90
947;DHT22;460;48.734;9.152;2022-11-15T01:38:05;7.80;99.90
947;DHT22;460;48.734;9.152;2022-11-15T01:40:32;7.80;99.90
947;DHT22;460;48.734;9.152;2022-11-15T01:42:59;7.80;99.90
947;DHT22;460;48.734;9.152;2022-11-15T01:45:26;7.70;99.90
947;DHT22;460;48.734;9.152;2022-11-15T01:47:55;7.70;99.90
947;DHT22;460;48.734;9.152;2022-11-15T01:50:25;7.80;99.90
947;DHT22;460;48.734;9.152;2022-11-15T01:52:53;7.80;99.90
947;DHT22;460;48.734;9.152;2022-11-15T01:55:22;7.70;99.90
947;DHT22;460;48.734;9.152;2022-11-15T01:57:53;7.70;99.90
947;DHT22;460;48.734;9.152;2022-11-15T02:00:21;7.70;99.90
947;DHT22;460;48.734;9.152;2022-11-15T02:02:48;7.60;99.90
947;DHT22;460;48.734;9.152;2022-11-15T02:05:16;7.60;99.90
947;DHT22;460;48.734;9.152;2022-11-15T02:07:44;7.70;99.90
947;DHT22;460;48.734;9.152;2022-11-15T02:10:17;7.80;99.90
947;DHT22;460;48.734;9.152;2022-11-15T02:12:44;7.70;99.90
947;DHT22;460;48.734;9.152;2022-11-15T02:15:12;7.60;99.90
947;DHT22;460;48.734;9.152;2022-11-15T02:17:54;7.60;99.90
947;DHT22;460;48.734;9.152;2022-11-15T02:20:52;7.50;99.90
947;DHT22;460;48.734;9.152;2022-11-15T02:26:31;7.40;99.90
947;DHT22;460;48.734;9.152;2022-11-15T02:29:08;7.40;99.90
947;DHT22;460;48.734;9.152;2022-11-15T02:31:42;7.40;99.90
947;DHT22;460;48.734;9.152;2022-11-15T02:34:23;7.40;99.90
947;DHT22;460;48.734;9.152;2022-11-15T02:37:00;7.40;99.90
947;DHT22;460;48.734;9.152;2022-11-15T02:39:35;7.40;99.90
947;DHT22;460;48.734;9.152;2022-11-15T02:42:07;7.40;99.90
947;DHT22;460;48.734;9.152;2022-11-15T02:44:57;7.40;99.90
947;DHT22;460;48.734;9.152;2022-11-15T02:47:27;7.40;99.90
947;DHT22;460;48.734;9.152;2022-11-15T02:49:58;7.50;99.90
947;DHT22;460;48.734;9.152;2022-11-15T02:52:26;7.50;99.90
947;DHT22;460;48.734;9.152;2022-11-15T02:54:54;7.40;99.90
947;DHT22;460;48.734;9.152;2022-11-15T02:57:28;7.60;99.90
947;DHT22;460;48.734;9.152;2022-11-15T03:00:08;7.50;99.90
947;DHT22;460;48.734;9.152;2022-11-15T03:02:54;7.50;99.90
947;DHT22;460;48.734;9.152;2022-11-15T03:05:27;7.40;99.90
947;DHT22;460;48.734;9.152;2022-11-15T03:08:02;7.50;99.90
947;DHT22;460;48.734;9.152;2022-11-15T03:10:39;7.50;99.90
947;DHT22;460;48.734;9.152;2022-11-15T03:13:16;7.50;99.90
947;DHT22;460;48.734;9.152;2022-11-15T03:15:50;7.50;99.90
947;DHT22;460;48.734;9.152;2022-11-15T03:18:25;7.50;99.90
947;DHT22;460;48.734;9.152;2022-11-15T03:20:58;7.50;99.90
947;DHT22;460;48.734;9.152;2022-11-15T03:23:29;7.40;99.90
947;DHT22;460;48.734;9.152;2022-11-15T03:25:57;7.40;99.90
947;DHT22;460;48.734;9.152;2022-11-15T03:28:30;7.30;99.90
947;DHT22;460;48.734;9.152;2022-11-15T03:31:01;7.30;99.90
947;DHT22;460;48.734;9.152;2022-11-15T03:33:51;7.30;99.90
947;DHT22;460;48.734;9.152;2022-11-15T03:36:21;7.30;99.90
947;DHT22;460;48.734;9.152;2022-11-15T03:38:48;7.30;99.90
947;DHT22;460;48.734;9.152;2022-11-15T03:41:19;7.30;99.90
947;DHT22;460;48.734;9.152;2022-11-15T03:43:54;7.30;99.90
947;DHT22;460;48.734;9.152;2022-11-15T03:46:25;7.30;99.90
947;DHT22;460;48.734;9.152;2022-11-15T03:49:00;7.40;99.90
947;DHT22;460;48.734;9.152;2022-11-15T03:51:29;7.30;99.90
947;DHT22;460;48.734;9.152;2022-11-15T03:53:56;7.30;99.90
947;DHT22;460;48.734;9.152;2022-11-15T03:56:23;7.30;99.90
947;DHT22;460;48.734;9.152;2022-11-15T03:58:50;7.30;99.90
947;DHT22;460;48.734;9.152;2022-11-15T04:01:18;7.30;99.90
947;DHT22;460;48.734;9.152;2022-11-15T04:03:45;7.30;99.90
947;DHT22;460;48.734;9.152;2022-11-15T04:06:13;7.30;99.90
947;DHT22;460;48.734;9.152;2022-11-15T04:08:40;7.30;99.90
947;DHT22;460;48.734;9.152;2022-11-15T04:11:07;7.30;99.90
947;DHT22;460;48.734;9.152;2022-11-15T04:13:34;7.30;99.90
947;DHT22;460;48.734;9.152;2022-11-15T04:16:01;7.30;99.90
947;DHT22;460;48.734;9.152;2022-11-15T04:18:29;7.30;99.90
947;DHT22;460;48.734;9.152;2022-11-15T04:20:56;7.30;99.90
947;DHT22;460;48.734;9.152;2022-11-15T04:23:42;7.30;99.90
947;DHT22;460;48.734;9.152;2022-11-15T04:26:26;7.30;99.90
947;DHT22;460;48.734;9.152;2022-11-15T04:28:53;7.30;99.90
947;DHT22;460;48.734;9.152;2022-11-15T04:31:37;7.20;99.90
947;DHT22;460;48.734;9.152;2022-11-15T04:34:04;7.30;99.90
947;DHT22;460;48.734;9.152;2022-11-15T04:36:32;7.20;99.90
947;DHT22;460;48.734;9.152;2022-11-15T04:39:17;7.20;99.90
947;DHT22;460;48.734;9.152;2022-11-15T04:41:44;7.20;99.90
947;DHT22;460;48.734;9.152;2022-11-15T04:44:11;7.20;99.90
947;DHT22;460;48.734;9.152;2022-11-15T04:46:38;7.20;99.90
947;DHT22;460;48.734;9.152;2022-11-15T04:49:05;7.20;99.90
947;DHT22;460;48.734;9.152;2022-11-15T04:51:31;7.20;99.90
947;DHT22;460;48.734;9.152;2022-11-15T04:53:58;7.30;99.90
947;DHT22;460;48.734;9.152;2022-11-15T04:56:26;7.10;99.90
947;DHT22;460;48.734;9.152;2022-11-15T04:58:53;7.00;99.90
947;DHT22;460;48.734;9.152;2022-11-15T05:01:20;7.10;99.90
947;DHT22;460;48.734;9.152;2022-11-15T05:03:47;7.20;99.90
947;DHT22;460;48.734;9.152;2022-11-15T05:06:31;7.10;99.90
947;DHT22;460;48.734;9.152;2022-11-15T05:08:58;7.20;99.90
947;DHT22;460;48.734;9.152;2022-11-15T05:11:26;7.20;99.90
947;DHT22;460;48.734;9.152;2022-11-15T05:13:53;7.20;99.90
947;DHT22;460;48.734;9.152;2022-11-15T05:16:20;7.20;99.90
947;DHT22;460;48.734;9.152;2022-11-15T05:18:50;7.20;99.90
947;DHT22;460;48.734;9.152;2022-11-15T05:21:17;7.10;99.90
947;DHT22;460;48.734;9.152;2022-11-15T05:23:44;7.20;99.90
947;DHT22;460;48.734;9.152;2022-11-15T05:26:12;7.10;99.90
947;DHT22;460;48.734;9.152;2022-11-15T05:28:40;7.10;99.90
947;DHT22;460;48.734;9.152;2022-11-15T05:31:09;7.00;99.90
947;DHT22;460;48.734;9.152;2022-11-15T05:33:37;7.00;99.90
947;DHT22;460;48.734;9.152;2022-11-15T05:36:09;7.10;99.90
947;DHT22;460;48.734;9.152;2022-11-15T05:38:37;7.00;99.90
947;DHT22;460;48.734;9.152;2022-11-15T05:41:05;7.10;99.90
947;DHT22;460;48.734;9.152;2022-11-15T05:43:36;7.00;99.90
947;DHT22;460;48.734;9.152;2022-11-15T05:46:06;7.00;99.90
947;DHT22;460;48.734;9.152;2022-11-15T05:48:34;7.10;99.90
947;DHT22;460;48.734;9.152;2022-11-15T05:51:03;7.10;99.90
947;DHT22;460;48.734;9.152;2022-11-15T05:53:31;7.00;99.90
947;DHT22;460;48.734;9.152;2022-11-15T05:55:58;7.10;99.90
947;DHT22;460;48.734;9.152;2022-11-15T05:58:25;7.00;99.90
947;DHT22;460;48.734;9.152;2022-11-15T06:00:51;7.10;99.90
947;DHT22;460;48.734;9.152;2022-11-15T06:03:20;6.90;99.90
947;DHT22;460;48.734;9.152;2022-11-15T06:05:46;7.10;99.90
947;DHT22;460;48.734;9.152;2022-11-15T06:08:13;7.10;99.90
947;DHT22;460;48.734;9.152;2022-11-15T06:10:40;7.10;99.90
947;DHT22;460;48.734;9.152;2022-11-15T06:13:07;7.10;99.90
947;DHT22;460;48.734;9.152;2022-11-15T06:15:33;7.20;99.90
947;DHT22;460;48.734;9.152;2022-11-15T06:18:00;7.20;99.90
947;DHT22;460;48.734;9.152;2022-11-15T06:20:29;7.20;99.90
947;DHT22;460;48.734;9.152;2022-11-15T06:22:57;7.20;99.90
947;DHT22;460;48.734;9.152;2022-11-15T06:25:24;7.20;99.90
947;DHT22;460;48.734;9.152;2022-11-15T06:27:51;7.20;99.90
947;DHT22;460;48.734;9.152;2022-11-15T06:30:19;7.20;99.90
947;DHT22;460;48.734;9.152;2022-11-15T06:32:45;7.20;99.90
947;DHT22;460;48.734;9.152;2022-11-15T06:35:12;7.20;99.90
947;DHT22;460;48.734;9.152;2022-11-15T06:37:41;7.20;99.90
947;DHT22;460;48.734;9.152;2022-11-15T06:40:09;7.20;99.90
947;DHT22;460;48.734;9.152;2022-11-15T06:42:36;7.10;99.90
947;DHT22;460;48.734;9.152;2022-11-15T06:45:03;7.20;99.90
947;DHT22;460;48.734;9.152;2022-11-15T06:47:30;7.30;99.90
947;DHT22;460;48.734;9.152;2022-11-15T06:49:57;7.30;99.90
947;DHT22;460;48.734;9.152;2022-11-15T06:52:24;7.30;99.90
947;DHT22;460;48.734;9.152;2022-11-15T06:54:52;7.30;99.90
947;DHT22;460;48.734;9.152;2022-11-15T06:57:19;7.30;99.90
947;DHT22;460;48.734;9.152;2022-11-15T06:59:46;7.40;99.90
947;DHT22;460;48.734;9.152;2022-11-15T07:02:13;7.40;99.90
947;DHT22;460;48.734;9.152;2022-11-15T07:04:40;7.50;99.90
947;DHT22;460;48.734;9.152;2022-11-15T07:07:06;7.40;99.90
947;DHT22;460;48.734;9.152;2022-11-15T07:09:33;7.40;99.90
947;DHT22;460;48.734;9.152;2022-11-15T07:12:01;7.50;99.90
947;DHT22;460;48.734;9.152;2022-11-15T07:14:28;7.40;99.90
947;DHT22;460;48.734;9.152;2022-11-15T07:16:55;7.40;99.90
947;DHT22;460;48.734;9.152;2022-11-15T07:19:22;7.40;99.90
947;DHT22;460;48.734;9.152;2022-11-15T07:21:49;7.40;99.90
947;DHT22;460;48.734;9.152;2022-11-15T07:24:16;7.40;99.90
947;DHT22;460;48.734;9.152;2022-11-15T07:26:42;7.40;99.90
947;DHT22;460;48.734;9.152;2022-11-15T07:29:11;7.50;99.90
947;DHT22;460;48.734;9.152;2022-11-15T07:31:37;7.50;99.90
947;DHT22;460;48.734;9.152;2022-11-15T07:34:04;7.50;99.90
947;DHT22;460;48.734;9.152;2022-11-15T07:36:31;7.60;99.90
947;DHT22;460;48.734;9.152;2022-11-15T07:38:58;7.60;99.90
947;DHT22;460;48.734;9.152;2022-11-15T07:41:25;7.70;99.90
947;DHT22;460;48.734;9.152;2022-11-15T07:43:51;7.80;99.90
947;DHT22;460;48.734;9.152;2022-11-15T07:46:20;8.00;99.90
947;DHT22;460;48.734;9.152;2022-11-15T07:48:47;8.10;99.90
947;DHT22;460;48.734;9.152;2022-11-15T07:51:14;8.20;99.90
947;DHT22;460;48.734;9.152;2022-11-15T07:53:42;8.30;99.90
947;DHT22;460;48.734;9.152;2022-11-15T07:56:09;8.30;99.90
947;DHT22;460;48.734;9.152;2022-11-15T07:58:36;8.40;99.90
947;DHT22;460;48.734;9.152;2022-11-15T08:01:03;8.50;99.90
947;DHT22;460;48.734;9.152;2022-11-15T08:03:32;8.70;99.90
947;DHT22;460;48.734;9.152;2022-11-15T08:06:01;8.70;99.90
947;DHT22;460;48.734;9.152;2022-11-15T08:08:28;8.80;99.90
947;DHT22;460;48.734;9.152;2022-11-15T08:10:57;8.80;99.90
947;DHT22;460;48.734;9.152;2022-11-15T08:13:24;8.80;99.90
947;DHT22;460;48.734;9.152;2022-11-15T08:15:51;8.80;99.90
947;DHT22;460;48.734;9.152;2022-11-15T08:18:18;8.90;99.90
947;DHT22;460;48.734;9.152;2022-11-15T08:20:46;8.90;99.90
947;DHT22;460;48.734;9.152;2022-11-15T08:23:13;8.90;99.90
947;DHT22;460;48.734;9.152;2022-11-15T08:25:39;8.90;99.90
947;DHT22;460;48.734;9.152;2022-11-15T08:28:07;9.00;99.90
947;DHT22;460;48.734;9.152;2022-11-15T08:30:37;9.00;99.90
947;DHT22;460;48.734;9.152;2022-11-15T08:33:10;9.20;99.90
947;DHT22;460;48.734;9.152;2022-11-15T08:35:37;9.30;99.90
947;DHT22;460;48.734;9.152;2022-11-15T08:38:05;9.30;99.90
947;DHT22;460;48.734;9.152;2022-11-15T08:40:32;9.40;99.90
947;DHT22;460;48.734;9.152;2022-11-15T08:42:59;9.40;99.90
947;DHT22;460;48.734;9.152;2022-11-15T08:45:28;9.60;99.90
947;DHT22;460;48.734;9.152;2022-11-15T08:47:54;9.60;99.90
947;DHT22;460;48.734;9.152;2022-11-15T08:50:21;9.70;99.90
947;DHT22;460;48.734;9.152;2022-11-15T08:52:49;9.80;99.90
947;DHT22;460;48.734;9.152;2022-11-15T08:55:17;9.90;99.90
947;DHT22;460;48.734;9.152;2022-11-15T08:57:44;10.00;99.90
947;DHT22;460;48.734;9.152;2022-11-15T09:00:13;10.20;99.90
947;DHT22;460;48.734;9.152;2022-11-15T09:02:40;10.40;99.90
947;DHT22;460;48.734;9.152;2022-11-15T09:05:08;10.50;99.90
947;DHT22;460;48.734;9.152;2022-11-15T09:07:35;10.60;99.90
947;DHT22;460;48.734;9.152;2022-11-15T09:10:02;10.70;99.90
947;DHT22;460;48.734;9.152;2022-11-15T09:12:30;10.80;99.90
947;DHT22;460;48.734;9.152;2022-11-15T09:14:57;10.80;99.90
947;DHT22;460;48.734;9.152;2022-11-15T09:17:24;10.90;99.90
947;DHT22;460;48.734;9.152;2022-11-15T09:19:51;11.00;99.90
947;DHT22;460;48.734;9.152;2022-11-15T09:22:18;11.10;99.90
947;DHT22;460;48.734;9.152;2022-11-15T09:24:44;11.10;99.90
947;DHT22;460;48.734;9.152;2022-11-15T09:27:11;11.20;99.90
947;DHT22;460;48.734;9.152;2022-11-15T09:29:40;11.20;99.90
947;DHT22;460;48.734;9.152;2022-11-15T09:32:06;11.30;99.90
947;DHT22;460;48.734;9.152;2022-11-15T09:34:34;11.30;99.90
947;DHT22;460;48.734;9.152;2022-11-15T09:37:00;11.60;99.90
947;DHT22;460;48.734;9.152;2022-11-15T09:39:27;11.80;99.20
947;DHT22;460;48.734;9.152;2022-11-15T09:42:22;11.80;99.00
947;DHT22;460;48.734;9.152;2022-11-15T09:44:59;11.80;99.20
947;DHT22;460;48.734;9.152;2022-11-15T09:47:45;11.80;99.50
947;DHT22;460;48.734;9.152;2022-11-15T09:50:20;11.80;99.50
947;DHT22;460;48.734;9.152;2022-11-15T09:52:55;11.90;99.20
947;DHT22;460;48.734;9.152;2022-11-15T09:55:32;12.00;99.90
947;DHT22;460;48.734;9.152;2022-11-15T09:58:08;12.00;99.50
947;DHT22;460;48.734;9.152;2022-11-15T10:00:42;12.20;98.70
947;DHT22;460;48.734;9.152;2022-11-15T10:03:12;12.40;98.90
947;DHT22;460;48.734;9.152;2022-11-15T10:05:42;12.40;99.60
947;DHT22;460;48.734;9.152;2022-11-15T10:08:24;12.40;98.30
947;DHT22;460;48.734;9.152;2022-11-15T10:10:55;12.50;98.30
947;DHT22;460;48.734;9.152;2022-11-15T10:13:24;12.50;98.90
947;DHT22;460;48.734;9.152;2022-11-15T10:15:54;12.50;99.20
947;DHT22;460;48.734;9.152;2022-11-15T10:18:30;12.50;99.20
947;DHT22;460;48.734;9.152;2022-11-15T10:21:12;12.50;99.10
947;DHT22;460;48.734;9.152;2022-11-15T10:23:42;12.50;99.20
947;DHT22;460;48.734;9.152;2022-11-15T10:26:12;12.50;99.50
947;DHT22;460;48.734;9.152;2022-11-15T10:28:41;12.50;99.30
947;DHT22;460;48.734;9.152;2022-11-15T10:31:22;12.50;99.50
947;DHT22;460;48.734;9.152;2022-11-15T10:33:49;12.70;99.40
947;DHT22;460;48.734;9.152;2022-11-15T10:36:21;12.70;99.20
947;DHT22;460;48.734;9.152;2022-11-15T10:38:57;12.70;99.30
947;DHT22;460;48.734;9.152;2022-11-15T10:41:45;12.70;99.60
947;DHT22;460;48.734;9.152;2022-11-15T10:44:26;12.70;99.40
947;DHT22;460;48.734;9.152;2022-11-15T10:47:24;12.70;99.20
947;DHT22;460;48.734;9.152;2022-11-15T10:50:03;12.80;98.60
947;DHT22;460;48.734;9.152;2022-11-15T10:52:32;12.80;98.10
947;DHT22;460;48.734;9.152;2022-11-15T10:55:05;12.90;98.30
947;DHT22;460;48.734;9.152;2022-11-15T10:57:35;12.80;98.50
947;DHT22;460;48.734;9.152;2022-11-15T11:00:05;12.80;98.80
947;DHT22;460;48.734;9.152;2022-11-15T11:02:35;12.80;98.40
947;DHT22;460;48.734;9.152;2022-11-15T11:05:04;12.90;98.40
947;DHT22;460;48.734;9.152;2022-11-15T11:07:34;12.70;98.80
947;DHT22;460;48.734;9.152;2022-11-15T11:10:05;12.70;99.00
947;DHT22;460;48.734;9.152;2022-11-15T11:12:40;12.80;98.30
947;DHT22;460;48.734;9.152;2022-11-15T11:15:12;12.90;98.40
947;DHT22;460;48.734;9.152;2022-11-15T11:17:54;12.90;98.40
947;DHT22;460;48.734;9.152;2022-11-15T11:20:26;12.90;99.00
947;DHT22;460;48.734;9.152;2022-11-15T11:23:03;12.90;99.00
947;DHT22;460;48.734;9.152;2022-11-15T11:25:34;12.90;99.40
947;DHT22;460;48.734;9.152;2022-11-15T11:28:15;13.00;99.30
947;DHT22;460;48.734;9.152;2022-11-15T11:30:54;12.90;99.20
947;DHT22;460;48.734;9.152;2022-11-15T11:33:29;12.90;99.30
947;DHT22;460;48.734;9.152;2022-11-15T11:36:06;13.00;98.90
947;DHT22;460;48.734;9.152;2022-11-15T11:38:45;13.10;99.40
947;DHT22;460;48.734;9.152;2022-11-15T11:41:36;13.10;98.60
947;DHT22;460;48.734;9.152;2022-11-15T11:44:15;13.20;98.80
947;DHT22;460;48.734;9.152;2022-11-15T11:46:50;13.10;99.10
947;DHT22;460;48.734;9.152;2022-11-15T11:49:23;13.10;98.90
947;DHT22;460;48.734;9.152;2022-11-15T11:51:54;13.30;98.40
947;DHT22;460;48.734;9.152;2022-11-15T11:54:25;13.30;98.80
947;DHT22;460;48.734;9.152;2022-11-15T11:56:55;13.30;98.90
947;DHT22;460;48.734;9.152;2022-11-15T11:59:39;13.40;98.70
947;DHT22;460;48.734;9.152;2022-11-15T12:02:14;13.40;98.50
947;DHT22;460;48.734;9.152;2022-11-15T12:04:47;13.40;98.70
947;DHT22;460;48.734;9.152;2022-11-15T12:07:19;13.40;98.80
947;DHT22;460;48.734;9.152;2022-11-15T12:09:51;13.60;98.90
947;DHT22;460;48.734;9.152;2022-11-15T12:12:27;13.60;99.10
947;DHT22;460;48.734;9.152;2022-11-15T12:15:00;13.50;98.70
947;DHT22;460;48.734;9.152;2022-11-15T12:17:30;13.60;98.60
947;DHT22;460;48.734;9.152;2022-11-15T12:22:35;13.80;98.00
947;DHT22;460;48.734;9.152;2022-11-15T12:25:08;13.60;98.50
947;DHT22;460;48.734;9.152;2022-11-15T12:27:43;13.50;98.70
947;DHT22;460;48.734;9.152;2022-11-15T12:30:14;13.50;99.00
947;DHT22;460;48.734;9.152;2022-11-15T12:32:50;13.40;98.70
947;DHT22;460;48.734;9.152;2022-11-15T12:35:27;13.40;99.00
947;DHT22;460;48.734;9.152;2022-11-15T12:37:55;13.40;99.70
947;DHT22;460;48.734;9.152;2022-11-15T12:40:33;13.50;99.50
947;DHT22;460;48.734;9.152;2022-11-15T12:45:45;13.30;99.90
947;DHT22;460;48.734;9.152;2022-11-15T12:51:19;13.20;99.90
947;DHT22;460;48.734;9.152;2022-11-15T12:53:46;13.20;99.90
947;DHT22;460;48.734;9.152;2022-11-15T12:56:23;13.10;99.90
947;DHT22;460;48.734;9.152;2022-11-15T12:58:53;13.20;99.90
947;DHT22;460;48.734;9.152;2022-11-15T13:01:56;13.10;99.90
947;DHT22;460;48.734;9.152;2022-11-15T13:04:26;13.10;99.90
947;DHT22;460;48.734;9.152;2022-11-15T13:06:56;13.20;99.90
947;DHT22;460;48.734;9.152;2022-11-15T13:09:51;13.10;99.90
947;DHT22;460;48.734;9.152;2022-11-15T13:18:34;13.10;99.90
947;DHT22;460;48.734;9.152;2022-11-15T13:21:02;13.10;99.90
947;DHT22;460;48.734;9.152;2022-11-15T13:23:54;13.10;99.90
947;DHT22;460;48.734;9.152;2022-11-15T13:26:21;13.20;99.90
947;DHT22;460;48.734;9.152;2022-11-15T13:28:50;13.10;99.90
947;DHT22;460;48.734;9.152;2022-11-15T13:31:35;13.00;99.90
947;DHT22;460;48.734;9.152;2022-11-15T13:34:13;13.20;99.90
947;DHT22;460;48.734;9.152;2022-11-15T13:36:41;13.20;99.90
947;DHT22;460;48.734;9.152;2022-11-15T13:39:26;13.20;99.90
947;DHT22;460;48.734;9.152;2022-11-15T13:41:53;13.00;99.90
947;DHT22;460;48.734;9.152;2022-11-15T13:44:22;13.00;99.90
947;DHT22;460;48.734;9.152;2022-11-15T13:46:52;13.10;99.90
947;DHT22;460;48.734;9.152;2022-11-15T13:49:29;13.10;99.90
947;DHT22;460;48.734;9.152;2022-11-15T13:51:57;13.00;99.90
947;DHT22;460;48.734;9.152;2022-11-15T13:54:30;12.80;99.90
947;DHT22;460;48.734;9.152;2022-11-15T13:57:00;12.90;99.90
947;DHT22;460;48.734;9.152;2022-11-15T13:59:30;12.80;99.90
947;DHT22;460;48.734;9.152;2022-11-15T14:01:59;12.80;99.90
947;DHT22;460;48.734;9.152;2022-11-15T14:04:29;12.80;99.90
947;DHT22;460;48.734;9.152;2022-11-15T14:06:59;12.70;99.90
947;DHT22;460;48.734;9.152;2022-11-15T14:09:37;12.80;99.90
947;DHT22;460;48.734;9.152;2022-11-15T14:12:25;12.70;99.90
947;DHT22;460;48.734;9.152;2022-11-15T14:14:52;12.60;99.90
947;DHT22;460;48.734;9.152;2022-11-15T14:17:21;12.60;99.90
947;DHT22;460;48.734;9.152;2022-11-15T14:19:49;12.50;99.90
947;DHT22;460;48.734;9.152;2022-11-15T14:22:20;12.40;99.90
947;DHT22;460;48.734;9.152;2022-11-15T14:25:15;12.40;99.90
947;DHT22;460;48.734;9.152;2022-11-15T14:30:27;12.50;99.90
947;DHT22;460;48.734;9.152;2022-11-15T14:32:54;12.40;99.90
947;DHT22;460;48.734;9.152;2022-11-15T14:35:22;12.50;99.90
947;DHT22;460;48.734;9.152;2022-11-15T14:37:49;12.50;99.90
947;DHT22;460;48.734;9.152;2022-11-15T14:40:19;12.60;99.90
947;DHT22;460;48.734;9.152;2022-11-15T14:42:47;12.50;99.90
947;DHT22;460;48.734;9.152;2022-11-15T14:45:16;12.50;99.90
947;DHT22;460;48.734;9.152;2022-11-15T14:47:44;12.40;99.90
947;DHT22;460;48.734;9.152;2022-11-15T14:50:12;12.40;99.90
947;DHT22;460;48.734;9.152;2022-11-15T14:52:39;12.40;99.90
947;DHT22;460;48.734;9.152;2022-11-15T14:55:15;12.30;99.90
947;DHT22;460;48.734;9.152;2022-11-15T14:57:44;12.30;99.90
947;DHT22;460;48.734;9.152;2022-11-15T15:00:13;12.20;99.90
947;DHT22;460;48.734;9.152;2022-11-15T15:02:40;12.20;99.90
947;DHT22;460;48.734;9.152;2022-11-15T15:05:16;12.10;99.90
947;DHT22;460;48.734;9.152;2022-11-15T15:07:44;12.10;99.90
947;DHT22;460;48.734;9.152;2022-11-15T15:10:12;12.10;99.90
947;DHT22;460;48.734;9.152;2022-11-15T15:12:39;12.10;99.90
947;DHT22;460;48.734;9.152;2022-11-15T15:15:12;12.20;99.90
947;DHT22;460;48.734;9.152;2022-11-15T15:17:39;12.20;99.90
947;DHT22;460;48.734;9.152;2022-11-15T15:20:07;12.10;99.90
947;DHT22;460;48.734;9.152;2022-11-15T15:22:34;12.00;99.90
947;DHT22;460;48.734;9.152;2022-11-15T15:25:01;12.00;99.90
947;DHT22;460;48.734;9.152;2022-11-15T15:27:29;11.90;99.90
947;DHT22;460;48.734;9.152;2022-11-15T15:29:56;12.00;99.90
947;DHT22;460;48.734;9.152;2022-11-15T15:32:24;11.90;99.90
947;DHT22;460;48.734;9.152;2022-11-15T15:34:51;12.10;99.90
947;DHT22;460;48.734;9.152;2022-11-15T15:37:23;11.90;99.90
947;DHT22;460;48.734;9.152;2022-11-15T15:39:50;11.90;99.90
947;DHT22;460;48.734;9.152;2022-11-15T15:42:18;11.90;99.90
947;DHT22;460;48.734;9.152;2022-11-15T15:44:45;11.90;99.90
947;DHT22;460;48.734;9.152;2022-11-15T15:47:12;11.80;99.90
947;DHT22;460;48.734;9.152;2022-11-15T15:49:41;11.80;99.90
947;DHT22;460;48.734;9.152;2022-11-15T15:52:08;11.70;99.90
947;DHT22;460;48.734;9.152;2022-11-15T15:54:35;11.60;99.90
947;DHT22;460;48.734;9.152;2022-11-15T15:57:02;11.60;99.90
947;DHT22;460;48.734;9.152;2022-11-15T15:59:28;11.50;99.90
947;DHT22;460;48.734;9.152;2022-11-15T16:01:55;11.50;99.90
947;DHT22;460;48.734;9.152;2022-11-15T16:04:22;11.50;99.90
947;DHT22;460;48.734;9.152;2022-11-15T16:06:51;11.50;99.90
947;DHT22;460;48.734;9.152;2022-11-15T16:09:20;11.50;99.90
947;DHT22;460;48.734;9.152;2022-11-15T16:12:08;11.60;99.90
947;DHT22;460;48.734;9.152;2022-11-15T16:14:34;11.60;99.90
947;DHT22;460;48.734;9.152;2022-11-15T16:17:01;11.60;99.90
947;DHT22;460;48.734;9.152;2022-11-15T16:19:29;11.50;99.90
947;DHT22;460;48.734;9.152;2022-11-15T16:21:57;11.50;99.90
947;DHT22;460;48.734;9.152;2022-11-15T16:24:24;11.60;99.90
947;DHT22;460;48.734;9.152;2022-11-15T16:26:51;11.60;99.90
947;DHT22;460;48.734;9.152;2022-11-15T16:29:18;11.50;99.90
947;DHT22;460;48.734;9.152;2022-11-15T16:31:45;11.50;99.90
947;DHT22;460;48.734;9.152;2022-11-15T16:34:12;11.50;99.90
947;DHT22;460;48.734;9.152;2022-11-15T16:36:38;11.60;99.90
947;DHT22;460;48.734;9.152;2022-11-15T16:39:11;11.50;99.90
947;DHT22;460;48.734;9.152;2022-11-15T16:41:40;11.60;99.90
947;DHT22;460;48.734;9.152;2022-11-15T16:44:08;11.60;99.90
947;DHT22;460;48.734;9.152;2022-11-15T16:46:35;11.60;99.90
947;DHT22;460;48.734;9.152;2022-11-15T16:49:03;11.50;99.90
947;DHT22;460;48.734;9.152;2022-11-15T16:51:30;11.60;99.90
947;DHT22;460;48.734;9.152;2022-11-15T16:53:56;11.60;99.90
947;DHT22;460;48.734;9.152;2022-11-15T16:56:26;11.70;99.90
947;DHT22;460;48.734;9.152;2022-11-15T16:58:54;11.70;99.90
947;DHT22;460;48.734;9.152;2022-11-15T17:01:24;11.70;99.90
947;DHT22;460;48.734;9.152;2022-11-15T17:03:51;11.60;99.90
947;DHT22;460;48.734;9.152;2022-11-15T17:06:19;11.60;99.90
947;DHT22;460;48.734;9.152;2022-11-15T17:08:46;11.60;99.90
947;DHT22;460;48.734;9.152;2022-11-15T17:11:14;11.40;99.90
947;DHT22;460;48.734;9.152;2022-11-15T17:13:43;11.50;99.90
947;DHT22;460;48.734;9.152;2022-11-15T17:16:12;11.50;99.90
947;DHT22;460;48.734;9.152;2022-11-15T17:18:40;11.50;99.90
947;DHT22;460;48.734;9.152;2022-11-15T17:21:11;11.50;99.90
947;DHT22;460;48.734;9.152;2022-11-15T17:23:39;11.50;99.90
947;DHT22;460;48.734;9.152;2022-11-15T17:26:06;11.40;99.90